Time;durP1;ratioP1;P1;durP2;ratioP2;P2;SDS_P1;SDS_P2;PMS_P1;PMS_P2;Temp;Humidity;BMP_temperature;BMP_pressure;BME280_temperature;BME280_humidity;BME280_pressure;Samples;Min_cycle;Max_cycle;Signal;HPM_P1;HPM_P2
2024/01/01 00:00:14;;;;;;;;;;;11.80;87.50;;;;;;4980080;28;19910;-78
2024/01/01 00:02:40;;;;;;;;;;;11.80;87.40;;;;;;4987290;28;20361;-77
2024/01/01 00:05:06;;;;;;;;;;;11.80;87.40;;;;;;4978008;28;19914;-77
2024/01/01 00:07:31;;;;;;;;;;;11.80;87.60;;;;;;4984277;28;19916;-78
2024/01/01 00:09:57;;;;;;;;;;;11.80;87.70;;;;;;5013811;28;20313;-79
2024/01/01 00:12:22;;;;;;;;;;;11.80;88.00;;;;;;4998797;28;19909;-78
2024/01/01 00:14:48;;;;;;;;;;;11.80;87.30;;;;;;5016390;28;20270;-78
2024/01/01 00:17:13;;;;;;;;;;;11.80;87.30;;;;;;4998974;28;20378;-78
2024/01/01 00:19:39;;;;;;;;;;;11.80;87.50;;;;;;5016607;28;19906;-77
2024/01/01 00:22:04;;;;;;;;;;;11.80;87.30;;;;;;4999045;28;20369;-78
2024/01/01 00:24:30;;;;;;;;;;;11.80;87.50;;;;;;4998898;28;20325;-79
2024/01/01 00:26:55;;;;;;;;;;;11.80;87.40;;;;;;4998471;28;20440;-79
2024/01/01 00:29:21;;;;;;;;;;;11.80;87.50;;;;;;5016473;28;19906;-78
2024/01/01 00:31:46;;;;;;;;;;;11.80;87.50;;;;;;4998830;28;19906;-78
2024/01/01 00:34:12;;;;;;;;;;;11.80;87.50;;;;;;4998513;28;19910;-78
2024/01/01 00:36:37;;;;;;;;;;;11.80;87.40;;;;;;4998279;28;19905;-79
2024/01/01 00:39:03;;;;;;;;;;;11.80;87.50;;;;;;4998432;28;19975;-78
2024/01/01 00:41:28;;;;;;;;;;;11.80;87.30;;;;;;4998598;28;19906;-78
2024/01/01 00:43:53;;;;;;;;;;;11.80;87.60;;;;;;4998356;28;20251;-78
2024/01/01 00:46:19;;;;;;;;;;;11.80;87.50;;;;;;4998361;28;19905;-78
2024/01/01 00:48:44;;;;;;;;;;;11.80;87.50;;;;;;4998361;28;19905;-78
2024/01/01 00:51:10;;;;;;;;;;;11.80;87.80;;;;;;4998311;28;19905;-78
2024/01/01 00:53:35;;;;;;;;;;;11.80;87.60;;;;;;4998405;28;20027;-79
2024/01/01 00:56:01;;;;;;;;;;;11.80;87.80;;;;;;5015729;28;19957;-78
2024/01/01 00:58:26;;;;;;;;;;;11.80;87.80;;;;;;4998176;28;20380;-78
2024/01/01 01:00:51;;;;;;;;;;;11.80;87.60;;;;;;4998385;28;19956;-78
2024/01/01 01:03:17;;;;;;;;;;;11.80;87.90;;;;;;4997895;28;20004;-78
2024/01/01 01:05:42;;;;;;;;;;;11.80;88.10;;;;;;4997795;28;19905;-77
2024/01/01 01:08:08;;;;;;;;;;;11.80;87.50;;;;;;4997974;28;19948;-78
2024/01/01 01:10:33;;;;;;;;;;;11.80;87.70;;;;;;4998104;28;19944;-79
2024/01/01 01:12:58;;;;;;;;;;;11.80;87.90;;;;;;4998107;28;19913;-78
2024/01/01 01:15:25;;;;;;;;;;;11.80;87.90;;;;;;4997806;28;19906;-78
2024/01/01 01:17:50;;;;;;;;;;;11.80;87.80;;;;;;5014904;28;20416;-78
2024/01/01 01:20:15;;;;;;;;;;;11.80;87.60;;;;;;4997899;28;19906;-78
2024/01/01 01:22:41;;;;;;;;;;;11.80;87.80;;;;;;5015088;28;19909;-77
2024/01/01 01:25:07;;;;;;;;;;;11.80;87.90;;;;;;4997954;28;19956;-79
2024/01/01 01:27:33;;;;;;;;;;;11.80;87.90;;;;;;4997447;28;19944;-78
2024/01/01 01:29:58;;;;;;;;;;;11.80;87.90;;;;;;4997312;28;19910;-78
2024/01/01 01:32:23;;;;;;;;;;;11.80;87.90;;;;;;4997553;28;20000;-78
2024/01/01 01:34:49;;;;;;;;;;;11.80;87.90;;;;;;4997593;28;19905;-78
2024/01/01 01:37:15;;;;;;;;;;;11.80;87.70;;;;;;4997029;28;20377;-79
2024/01/01 01:39:40;;;;;;;;;;;11.80;87.80;;;;;;4997412;28;19989;-78
2024/01/01 01:42:07;;;;;;;;;;;11.80;87.50;;;;;;5015148;28;19912;-78
2024/01/01 01:44:33;;;;;;;;;;;11.80;87.70;;;;;;4997345;28;20280;-78
2024/01/01 01:46:59;;;;;;;;;;;11.80;87.90;;;;;;4997317;28;19909;-78
2024/01/01 01:49:24;;;;;;;;;;;11.80;87.60;;;;;;4997298;28;19906;-77
2024/01/01 01:51:50;;;;;;;;;;;11.80;87.70;;;;;;4997239;28;19906;-78
2024/01/01 01:54:16;;;;;;;;;;;11.80;87.70;;;;;;4997249;28;20326;-78
2024/01/01 01:56:41;;;;;;;;;;;11.80;87.50;;;;;;4997099;28;19913;-78
2024/01/01 01:59:07;;;;;;;;;;;11.80;87.80;;;;;;5014578;28;19906;-78
2024/01/01 02:01:33;;;;;;;;;;;11.80;87.40;;;;;;4996918;28;19905;-77
2024/01/01 02:03:58;;;;;;;;;;;11.80;87.50;;;;;;4996827;28;19917;-78
2024/01/01 02:06:23;;;;;;;;;;;11.80;87.60;;;;;;4996724;28;19932;-78
2024/01/01 02:08:49;;;;;;;;;;;11.80;87.80;;;;;;4996871;28;20381;-79
2024/01/01 02:11:15;;;;;;;;;;;11.80;87.50;;;;;;5014233;28;20576;-77
2024/01/01 02:13:40;;;;;;;;;;;11.80;87.60;;;;;;4996733;28;19913;-78
2024/01/01 02:16:05;;;;;;;;;;;11.80;87.50;;;;;;4996136;28;19949;-78
2024/01/01 02:18:31;;;;;;;;;;;11.80;87.70;;;;;;4996667;28;20438;-78
2024/01/01 02:20:56;;;;;;;;;;;11.80;87.90;;;;;;4996776;28;19905;-78
2024/01/01 02:23:24;;;;;;;;;;;11.80;87.60;;;;;;5014102;28;19909;-78
2024/01/01 02:25:50;;;;;;;;;;;11.80;87.50;;;;;;4996391;28;20004;-77
2024/01/01 02:28:16;;;;;;;;;;;11.80;87.00;;;;;;4996343;28;20389;-79
2024/01/01 02:30:41;;;;;;;;;;;11.80;87.40;;;;;;4996404;28;19911;-78
2024/01/01 02:33:09;;;;;;;;;;;11.80;87.50;;;;;;5013920;28;19905;-77
2024/01/01 02:35:35;;;;;;;;;;;11.80;87.30;;;;;;4996267;28;19909;-78
2024/01/01 02:38:04;;;;;;;;;;;11.80;87.30;;;;;;5013728;28;19964;-78
2024/01/01 02:40:31;;;;;;;;;;;11.80;87.50;;;;;;4996284;28;19924;-78
2024/01/01 02:42:56;;;;;;;;;;;11.80;87.40;;;;;;4996161;28;19918;-79
2024/01/01 02:45:24;;;;;;;;;;;11.80;87.70;;;;;;4996294;28;19909;-78
2024/01/01 02:47:49;;;;;;;;;;;11.80;87.50;;;;;;4995840;28;19948;-78
2024/01/01 02:50:15;;;;;;;;;;;11.80;87.50;;;;;;4996470;28;19906;-78
2024/01/01 02:52:41;;;;;;;;;;;11.80;87.60;;;;;;5011272;28;19964;-79
2024/01/01 02:55:06;;;;;;;;;;;11.80;87.50;;;;;;4992805;28;19957;-78
2024/01/01 02:57:32;;;;;;;;;;;11.80;86.80;;;;;;4992499;28;19921;-77
2024/01/01 02:59:57;;;;;;;;;;;11.80;87.30;;;;;;4992618;28;19961;-77
2024/01/01 03:02:23;;;;;;;;;;;11.80;87.60;;;;;;4992782;28;19980;-78
2024/01/01 03:04:48;;;;;;;;;;;11.80;87.30;;;;;;4992866;28;20440;-78
2024/01/01 03:07:13;;;;;;;;;;;11.80;87.30;;;;;;4993768;28;19910;-78
2024/01/01 03:09:39;;;;;;;;;;;11.80;87.40;;;;;;4992814;28;19945;-78
2024/01/01 03:12:05;;;;;;;;;;;11.80;87.30;;;;;;4992685;28;19996;-78
2024/01/01 03:14:31;;;;;;;;;;;11.80;87.00;;;;;;4976653;28;19906;-78
2024/01/01 03:16:56;;;;;;;;;;;11.80;87.30;;;;;;4992474;28;19910;-77
2024/01/01 03:19:22;;;;;;;;;;;11.80;86.60;;;;;;4992419;28;19905;-78
2024/01/01 03:21:47;;;;;;;;;;;11.80;87.10;;;;;;4992653;28;19912;-78
2024/01/01 03:24:13;;;;;;;;;;;11.80;87.10;;;;;;4992591;28;19936;-79
2024/01/01 03:26:38;;;;;;;;;;;11.80;87.50;;;;;;4993233;28;20033;-78
2024/01/01 03:29:03;;;;;;;;;;;11.80;87.40;;;;;;4996664;28;20330;-78
2024/01/01 03:31:29;;;;;;;;;;;11.80;86.90;;;;;;4996584;28;20008;-79
2024/01/01 03:33:55;;;;;;;;;;;11.80;87.00;;;;;;4996650;28;20000;-78
2024/01/01 03:36:20;;;;;;;;;;;11.80;87.00;;;;;;4980168;28;20004;-78
2024/01/01 03:38:45;;;;;;;;;;;11.80;87.20;;;;;;4997870;28;19906;-78
2024/01/01 03:41:11;;;;;;;;;;;11.80;86.80;;;;;;4996500;28;19906;-78
2024/01/01 03:43:36;;;;;;;;;;;11.80;87.30;;;;;;4997450;28;19910;-78
2024/01/01 03:46:02;;;;;;;;;;;11.80;87.40;;;;;;4997657;28;19906;-78
2024/01/01 03:48:27;;;;;;;;;;;11.80;87.40;;;;;;4997402;28;19918;-78
2024/01/01 03:50:53;;;;;;;;;;;11.80;87.70;;;;;;4996312;28;19984;-79
2024/01/01 03:53:18;;;;;;;;;;;11.80;87.30;;;;;;4996413;28;19906;-78
2024/01/01 03:55:44;;;;;;;;;;;11.80;87.20;;;;;;4996123;28;19916;-76
2024/01/01 03:58:09;;;;;;;;;;;11.80;87.50;;;;;;4997234;28;20001;-78
2024/01/01 04:00:35;;;;;;;;;;;11.80;87.60;;;;;;5005726;28;20384;-78
2024/01/01 04:03:00;;;;;;;;;;;11.80;87.20;;;;;;4999042;28;19910;-78
2024/01/01 04:05:25;;;;;;;;;;;11.70;87.40;;;;;;4999277;28;20281;-78
2024/01/01 04:07:51;;;;;;;;;;;11.80;87.60;;;;;;4998832;28;19905;-77
2024/01/01 04:10:17;;;;;;;;;;;11.80;87.70;;;;;;5016919;28;20417;-79
2024/01/01 04:12:43;;;;;;;;;;;11.80;87.80;;;;;;4999361;28;20305;-79
2024/01/01 04:15:08;;;;;;;;;;;11.80;87.90;;;;;;4998727;28;20003;-78
2024/01/01 04:17:33;;;;;;;;;;;11.80;87.90;;;;;;4998772;28;19932;-78
2024/01/01 04:19:59;;;;;;;;;;;11.80;88.10;;;;;;5015141;28;19910;-79
2024/01/01 04:22:24;;;;;;;;;;;11.80;88.20;;;;;;5016194;28;19905;-78
2024/01/01 04:24:50;;;;;;;;;;;11.80;88.20;;;;;;4998973;28;19905;-78
2024/01/01 04:27:15;;;;;;;;;;;11.80;88.10;;;;;;4998795;28;19921;-78
2024/01/01 04:29:41;;;;;;;;;;;11.80;88.00;;;;;;4998675;28;19912;-79
2024/01/01 04:32:06;;;;;;;;;;;11.80;88.10;;;;;;5031624;28;19905;-78
2024/01/01 04:34:31;;;;;;;;;;;11.80;88.10;;;;;;4998908;28;20004;-79
2024/01/01 04:36:57;;;;;;;;;;;11.80;87.90;;;;;;4998122;28;19906;-78
2024/01/01 04:39:22;;;;;;;;;;;11.80;88.00;;;;;;4998335;28;19917;-80
2024/01/01 04:41:47;;;;;;;;;;;11.80;88.20;;;;;;4998855;28;19959;-79
2024/01/01 04:44:13;;;;;;;;;;;11.80;88.00;;;;;;4998731;28;20008;-78
2024/01/01 04:46:38;;;;;;;;;;;11.80;88.00;;;;;;4998460;28;19905;-78
2024/01/01 04:49:04;;;;;;;;;;;11.80;88.00;;;;;;4998501;28;19913;-78
2024/01/01 04:51:29;;;;;;;;;;;11.80;88.10;;;;;;4998284;28;19961;-79
2024/01/01 04:53:55;;;;;;;;;;;11.80;88.00;;;;;;4998471;28;20012;-78
2024/01/01 04:56:23;;;;;;;;;;;11.80;87.90;;;;;;4998263;28;20027;-78
2024/01/01 04:58:48;;;;;;;;;;;11.60;87.80;;;;;;5031244;28;19916;-78
2024/01/01 05:01:14;;;;;;;;;;;11.80;87.90;;;;;;4998391;28;19910;-79
2024/01/01 05:03:39;;;;;;;;;;;11.80;88.00;;;;;;4997983;28;19917;-79
2024/01/01 05:06:04;;;;;;;;;;;11.80;88.10;;;;;;4998229;28;19909;-78
2024/01/01 05:08:31;;;;;;;;;;;11.80;88.00;;;;;;5014622;28;19910;-78
2024/01/01 05:10:57;;;;;;;;;;;11.80;87.90;;;;;;5030996;28;19972;-78
2024/01/01 05:13:22;;;;;;;;;;;11.80;88.00;;;;;;5014601;28;19916;-79
2024/01/01 05:15:48;;;;;;;;;;;11.80;88.50;;;;;;4998140;28;20273;-78
2024/01/01 05:18:14;;;;;;;;;;;11.80;87.80;;;;;;5015415;28;19968;-78
2024/01/01 05:20:39;;;;;;;;;;;11.80;88.00;;;;;;4998013;28;20637;-79
2024/01/01 05:23:05;;;;;;;;;;;11.80;87.70;;;;;;5015439;28;19945;-78
2024/01/01 05:25:30;;;;;;;;;;;11.80;87.80;;;;;;5015139;28;19905;-79
2024/01/01 05:27:55;;;;;;;;;;;11.80;87.80;;;;;;5015102;28;19910;-78
2024/01/01 05:30:21;;;;;;;;;;;11.80;88.00;;;;;;5015245;28;20269;-78
2024/01/01 05:32:46;;;;;;;;;;;11.80;88.00;;;;;;4997865;28;20358;-78
2024/01/01 05:35:12;;;;;;;;;;;11.80;88.10;;;;;;5015126;28;19920;-78
2024/01/01 05:37:37;;;;;;;;;;;11.80;88.10;;;;;;4997314;28;19912;-78
2024/01/01 05:40:03;;;;;;;;;;;11.80;88.00;;;;;;4997440;28;19905;-79
2024/01/01 05:42:31;;;;;;;;;;;11.80;88.20;;;;;;4997460;28;19913;-79
2024/01/01 05:44:57;;;;;;;;;;;11.80;88.30;;;;;;5015056;28;19905;-79
2024/01/01 05:47:22;;;;;;;;;;;11.80;88.20;;;;;;4997131;28;19912;-78
2024/01/01 05:49:47;;;;;;;;;;;11.80;88.00;;;;;;4996394;28;20320;-78
2024/01/01 05:52:13;;;;;;;;;;;11.80;88.10;;;;;;5014861;28;20676;-79
2024/01/01 05:54:38;;;;;;;;;;;11.80;88.30;;;;;;4997289;28;19981;-79
2024/01/01 05:57:04;;;;;;;;;;;11.80;88.30;;;;;;4997060;28;19995;-78
2024/01/01 05:59:29;;;;;;;;;;;11.80;88.20;;;;;;4996243;28;20441;-78
2024/01/01 06:01:55;;;;;;;;;;;11.80;88.30;;;;;;4996920;28;19905;-79
2024/01/01 06:04:20;;;;;;;;;;;11.80;88.10;;;;;;4996896;28;20243;-78
2024/01/01 06:06:45;;;;;;;;;;;11.80;88.20;;;;;;4996793;28;19928;-79
2024/01/01 06:09:11;;;;;;;;;;;11.80;88.20;;;;;;5029680;28;19905;-78
2024/01/01 06:11:36;;;;;;;;;;;11.80;87.90;;;;;;5013581;28;19906;-79
2024/01/01 06:14:02;;;;;;;;;;;11.80;87.90;;;;;;4996725;28;19913;-79
2024/01/01 06:16:28;;;;;;;;;;;11.80;87.90;;;;;;4996585;28;19913;-78
2024/01/01 06:18:54;;;;;;;;;;;11.80;88.40;;;;;;4996694;28;19916;-78
2024/01/01 06:21:19;;;;;;;;;;;11.70;87.80;;;;;;4996661;28;20000;-79
2024/01/01 06:23:45;;;;;;;;;;;11.80;88.00;;;;;;4996656;28;19931;-78
2024/01/01 06:26:11;;;;;;;;;;;11.80;88.10;;;;;;4996373;28;19992;-79
2024/01/01 06:28:38;;;;;;;;;;;11.80;88.10;;;;;;4996424;28;19909;-79
2024/01/01 06:31:03;;;;;;;;;;;11.80;88.00;;;;;;4996642;28;19999;-78
2024/01/01 06:33:29;;;;;;;;;;;11.80;88.10;;;;;;5013960;28;20369;-79
2024/01/01 06:35:55;;;;;;;;;;;11.80;88.00;;;;;;4996139;28;19906;-80
2024/01/01 06:38:20;;;;;;;;;;;11.70;87.90;;;;;;4996445;28;19905;-78
2024/01/01 06:40:46;;;;;;;;;;;11.80;88.00;;;;;;4996679;28;20316;-78
2024/01/01 06:43:11;;;;;;;;;;;11.80;88.00;;;;;;4996663;28;20309;-78
2024/01/01 06:45:37;;;;;;;;;;;11.80;88.00;;;;;;4996206;28;19909;-78
2024/01/01 06:48:02;;;;;;;;;;;11.80;88.00;;;;;;4995862;28;20274;-78
2024/01/01 06:50:27;;;;;;;;;;;11.70;88.00;;;;;;4996374;28;19906;-78
2024/01/01 06:52:53;;;;;;;;;;;11.80;88.20;;;;;;5013910;28;19905;-78
2024/01/01 06:55:19;;;;;;;;;;;11.80;88.10;;;;;;4996233;28;19905;-78
2024/01/01 06:57:44;;;;;;;;;;;11.70;88.00;;;;;;4996046;28;19968;-79
2024/01/01 07:00:10;;;;;;;;;;;11.80;88.10;;;;;;4996194;28;19960;-78
2024/01/01 07:02:36;;;;;;;;;;;11.80;88.20;;;;;;4996235;28;19905;-79
2024/01/01 07:05:02;;;;;;;;;;;11.80;88.30;;;;;;4996149;28;20004;-78
2024/01/01 07:07:27;;;;;;;;;;;11.80;88.30;;;;;;4996072;28;19912;-79
2024/01/01 07:09:53;;;;;;;;;;;11.70;88.00;;;;;;4995970;28;20000;-78
2024/01/01 07:12:23;;;;;;;;;;;11.80;88.10;;;;;;4996051;28;19990;-79
2024/01/01 07:14:49;;;;;;;;;;;11.70;88.70;;;;;;4996034;28;19976;-79
2024/01/01 07:17:15;;;;;;;;;;;11.80;88.20;;;;;;5013323;28;20354;-79
2024/01/01 07:19:40;;;;;;;;;;;11.80;88.10;;;;;;4995628;28;19910;-78
2024/01/01 07:22:06;;;;;;;;;;;11.80;88.00;;;;;;4995872;28;19952;-79
2024/01/01 07:24:31;;;;;;;;;;;11.80;88.10;;;;;;5013574;28;19956;-78
2024/01/01 07:26:57;;;;;;;;;;;11.80;88.00;;;;;;4995336;28;20002;-79
2024/01/01 07:29:23;;;;;;;;;;;11.80;88.00;;;;;;4995684;28;19996;-78
2024/01/01 07:31:48;;;;;;;;;;;11.80;88.10;;;;;;4995758;28;19911;-79
2024/01/01 07:34:18;;;;;;;;;;;11.70;88.10;;;;;;4995861;28;19933;-78
2024/01/01 07:36:43;;;;;;;;;;;11.80;88.30;;;;;;4995594;28;19960;-78
2024/01/01 07:39:09;;;;;;;;;;;11.80;88.10;;;;;;4995644;28;19906;-78
2024/01/01 07:41:34;;;;;;;;;;;11.70;88.20;;;;;;5013464;28;19909;-79
2024/01/01 07:43:59;;;;;;;;;;;11.70;88.10;;;;;;4990996;28;19924;-79
2024/01/01 07:46:25;;;;;;;;;;;11.80;88.30;;;;;;4992609;28;19916;-79
2024/01/01 07:48:50;;;;;;;;;;;11.80;88.20;;;;;;4990034;28;19912;-78
2024/01/01 07:51:16;;;;;;;;;;;11.70;87.90;;;;;;4990653;28;20001;-79
2024/01/01 07:53:42;;;;;;;;;;;11.80;87.90;;;;;;4990097;28;20008;-78
2024/01/01 07:56:07;;;;;;;;;;;11.80;87.80;;;;;;4990946;28;19964;-78
2024/01/01 07:58:33;;;;;;;;;;;11.80;88.00;;;;;;4990389;28;19913;-78
2024/01/01 08:00:58;;;;;;;;;;;11.80;87.80;;;;;;4990844;28;19913;-78
2024/01/01 08:03:25;;;;;;;;;;;11.80;87.90;;;;;;4990294;28;19945;-77
2024/01/01 08:05:51;;;;;;;;;;;11.70;88.00;;;;;;4990323;28;19905;-79
2024/01/01 08:08:16;;;;;;;;;;;11.80;88.00;;;;;;4990215;28;19914;-78
2024/01/01 08:10:43;;;;;;;;;;;11.80;88.30;;;;;;4990259;28;19917;-79
2024/01/01 08:13:11;;;;;;;;;;;11.80;87.90;;;;;;4992960;28;19928;-79
2024/01/01 08:15:39;;;;;;;;;;;11.80;88.10;;;;;;4978187;28;19910;-80
2024/01/01 08:18:37;;;;;;;;;;;11.70;87.80;;;;;;4994432;28;19909;-78
2024/01/01 08:21:05;;;;;;;;;;;11.90;87.80;;;;;;4969832;28;20385;-78
2024/01/01 08:23:33;;;;;;;;;;;11.80;88.30;;;;;;4993210;28;19917;-79
2024/01/01 08:25:59;;;;;;;;;;;11.80;87.80;;;;;;4993866;28;20332;-80
2024/01/01 08:28:24;;;;;;;;;;;13.20;88.70;;;;;;4993597;28;20036;-78
2024/01/01 08:30:50;;;;;;;;;;;11.90;88.20;;;;;;4993931;28;19910;-78
2024/01/01 08:33:16;;;;;;;;;;;11.80;87.90;;;;;;4993543;28;19914;-78
2024/01/01 08:35:42;;;;;;;;;;;11.80;87.80;;;;;;4993345;28;19910;-78
2024/01/01 08:38:07;;;;;;;;;;;11.90;88.00;;;;;;4993185;28;19909;-80
2024/01/01 08:40:33;;;;;;;;;;;11.80;87.90;;;;;;4993617;28;20420;-79
2024/01/01 08:42:58;;;;;;;;;;;12.00;88.10;;;;;;4993061;28;19921;-78
2024/01/01 08:45:23;;;;;;;;;;;11.80;88.10;;;;;;4993238;28;19910;-78
2024/01/01 08:47:49;;;;;;;;;;;11.80;88.10;;;;;;4994626;28;19984;-78
2024/01/01 08:50:14;;;;;;;;;;;12.00;88.60;;;;;;4995685;28;20255;-80
2024/01/01 08:52:42;;;;;;;;;;;12.10;88.40;;;;;;4995886;28;19910;-79
2024/01/01 08:55:08;;;;;;;;;;;11.70;87.90;;;;;;4978338;28;19906;-79
2024/01/01 08:57:33;;;;;;;;;;;11.70;87.50;;;;;;4978240;28;20370;-78
2024/01/01 08:59:59;;;;;;;;;;;11.60;87.80;;;;;;4988827;28;19909;-79
2024/01/01 09:02:24;;;;;;;;;;;11.90;87.70;;;;;;4997786;28;20350;-79
2024/01/01 09:04:50;;;;;;;;;;;11.90;88.20;;;;;;4997051;28;19910;-79
2024/01/01 09:07:15;;;;;;;;;;;11.80;87.90;;;;;;4996989;28;19916;-79
2024/01/01 09:09:41;;;;;;;;;;;11.80;87.80;;;;;;4997353;28;19949;-79
2024/01/01 09:12:07;;;;;;;;;;;11.80;87.90;;;;;;4997575;28;19956;-79
2024/01/01 09:14:35;;;;;;;;;;;11.80;87.90;;;;;;4998299;28;19967;-79
2024/01/01 09:17:07;;;;;;;;;;;12.40;88.50;;;;;;5015189;28;19912;-79
2024/01/01 09:19:33;;;;;;;;;;;11.90;87.90;;;;;;4998555;28;19963;-78
2024/01/01 09:22:04;;;;;;;;;;;12.00;87.80;;;;;;5013685;28;19909;-79
2024/01/01 09:24:32;;;;;;;;;;;11.80;87.90;;;;;;4998253;28;20419;-79
2024/01/01 09:27:03;;;;;;;;;;;11.70;87.80;;;;;;4997459;28;19921;-79
2024/01/01 09:29:30;;;;;;;;;;;12.10;88.10;;;;;;4998013;28;19910;-78
2024/01/01 09:31:56;;;;;;;;;;;12.60;88.50;;;;;;4998974;28;20065;-79
2024/01/01 09:34:21;;;;;;;;;;;12.20;88.20;;;;;;4996888;28;20422;-79
2024/01/01 09:36:47;;;;;;;;;;;11.80;88.00;;;;;;5014416;28;20270;-80
2024/01/01 09:39:13;;;;;;;;;;;11.80;87.80;;;;;;5014202;28;19961;-78
2024/01/01 09:42:20;;;;;;;;;;;11.80;88.20;;;;;;4996299;28;19948;-79
2024/01/01 09:44:48;;;;;;;;;;;11.80;88.20;;;;;;4993566;28;19914;-81
2024/01/01 09:47:14;;;;;;;;;;;11.90;88.30;;;;;;5000354;28;19964;-81
2024/01/01 09:49:40;;;;;;;;;;;11.80;88.20;;;;;;4998717;28;20012;-81
2024/01/01 09:52:05;;;;;;;;;;;11.80;88.20;;;;;;4998122;28;19952;-80
2024/01/01 09:54:33;;;;;;;;;;;11.80;88.10;;;;;;5017447;28;20380;-79
2024/01/01 09:57:01;;;;;;;;;;;11.80;88.30;;;;;;5000595;28;19910;-78
2024/01/01 09:59:36;;;;;;;;;;;11.80;88.20;;;;;;5013579;28;19920;-79
2024/01/01 10:02:04;;;;;;;;;;;11.80;88.30;;;;;;4997319;28;19960;-79
2024/01/01 10:04:34;;;;;;;;;;;11.80;88.30;;;;;;4997989;28;19918;-80
2024/01/01 10:06:59;;;;;;;;;;;11.80;88.20;;;;;;4997858;28;20366;-80
2024/01/01 10:09:45;;;;;;;;;;;12.00;88.40;;;;;;4997823;28;19913;-80
2024/01/01 10:12:31;;;;;;;;;;;11.60;88.20;;;;;;4997901;28;19909;-79
2024/01/01 10:15:11;;;;;;;;;;;11.80;88.40;;;;;;4997764;28;19910;-80
2024/01/01 10:17:37;;;;;;;;;;;11.80;88.30;;;;;;4997265;28;19909;-80
2024/01/01 10:20:12;;;;;;;;;;;11.90;88.30;;;;;;4996280;28;19984;-78
2024/01/01 10:22:39;;;;;;;;;;;11.80;88.30;;;;;;4995178;28;19909;-80
2024/01/01 10:25:46;;;;;;;;;;;12.30;88.50;;;;;;5001190;28;19913;-80
2024/01/01 10:28:33;;;;;;;;;;;11.80;88.30;;;;;;5014154;28;19932;-79
2024/01/01 10:31:24;;;;;;;;;;;11.60;88.10;;;;;;4996333;28;19917;-79
2024/01/01 10:34:08;;;;;;;;;;;11.60;88.10;;;;;;4989206;28;19957;-79
2024/01/01 10:36:46;;;;;;;;;;;11.70;88.40;;;;;;4995432;28;19920;-79
2024/01/01 10:39:12;;;;;;;;;;;11.80;88.60;;;;;;5311960;23;19964;-80
2024/01/01 10:41:41;;;;;;;;;;;11.80;88.30;;;;;;4997205;28;19910;-79
2024/01/01 10:44:29;;;;;;;;;;;11.80;88.10;;;;;;4976160;28;20327;-79
2024/01/01 10:46:59;;;;;;;;;;;11.80;88.30;;;;;;5007951;28;19917;-80
2024/01/01 10:49:29;;;;;;;;;;;11.80;88.10;;;;;;4992970;28;19910;-79
2024/01/01 10:52:10;;;;;;;;;;;12.10;88.20;;;;;;4993080;28;19917;-79
2024/01/01 11:07:44;;;;;;;;;;;;;;;;;;;;;
2024/01/01 11:25:39;;;;;;;;;;;11.80;88.00;;;;;;5030319;28;19952;-80
2024/01/01 11:28:33;;;;;;;;;;;11.80;88.10;;;;;;5015869;28;19928;-78
2024/01/01 11:30:59;;;;;;;;;;;11.70;88.10;;;;;;5013742;28;19917;-79
2024/01/01 11:33:24;;;;;;;;;;;11.90;88.20;;;;;;5015862;28;19921;-78
2024/01/01 11:36:04;;;;;;;;;;;11.80;88.40;;;;;;5006089;28;20294;-79
2024/01/01 11:38:29;;;;;;;;;;;12.50;88.70;;;;;;5010647;28;19913;-78
2024/01/01 11:40:58;;;;;;;;;;;11.80;88.00;;;;;;4993638;28;20474;-78
2024/01/01 11:43:23;;;;;;;;;;;11.80;88.30;;;;;;4993444;28;19968;-80
2024/01/01 11:45:53;;;;;;;;;;;11.80;88.10;;;;;;4994610;28;19910;-78
2024/01/01 11:48:18;;;;;;;;;;;11.80;88.40;;;;;;4996312;28;20669;-79
2024/01/01 11:50:46;;;;;;;;;;;11.90;88.20;;;;;;4997703;28;19959;-82
2024/01/01 11:53:21;;;;;;;;;;;11.90;88.30;;;;;;4997400;28;19953;-77
2024/01/01 11:55:46;;;;;;;;;;;11.80;88.10;;;;;;5003102;28;19916;-78
2024/01/01 11:58:17;;;;;;;;;;;11.80;88.30;;;;;;5033886;28;19909;-79
2024/01/01 12:00:43;;;;;;;;;;;12.60;88.80;;;;;;5033578;28;19910;-79
2024/01/01 12:03:08;;;;;;;;;;;12.60;88.90;;;;;;5036041;28;20284;-80
2024/01/01 12:05:34;;;;;;;;;;;11.80;88.30;;;;;;5018409;28;19909;-79
2024/01/01 12:08:10;;;;;;;;;;;11.90;88.30;;;;;;5017682;28;19944;-79
2024/01/01 12:10:35;;;;;;;;;;;12.10;88.70;;;;;;5034311;28;19920;-79
2024/01/01 12:13:03;;;;;;;;;;;11.80;88.20;;;;;;5016394;28;19910;-78
2024/01/01 12:15:31;;;;;;;;;;;11.90;88.40;;;;;;5016141;28;19952;-78
2024/01/01 12:17:57;;;;;;;;;;;11.90;88.60;;;;;;5032103;28;19970;-78
2024/01/01 12:20:23;;;;;;;;;;;11.80;88.40;;;;;;5016358;28;19913;-79
2024/01/01 12:22:49;;;;;;;;;;;11.80;88.40;;;;;;5033083;28;19913;-79
2024/01/01 12:25:18;;;;;;;;;;;11.90;88.60;;;;;;5033855;28;19916;-78
2024/01/01 12:27:44;;;;;;;;;;;11.80;88.40;;;;;;5033316;28;19913;-79
2024/01/01 12:30:30;;;;;;;;;;;11.80;88.50;;;;;;5032512;28;19925;-78
2024/01/01 12:32:56;;;;;;;;;;;11.80;88.50;;;;;;5032789;28;20293;-77
2024/01/01 12:35:21;;;;;;;;;;;11.80;88.40;;;;;;5016849;28;19913;-79
2024/01/01 12:37:47;;;;;;;;;;;11.80;88.50;;;;;;5016944;28;19956;-79
2024/01/01 12:40:13;;;;;;;;;;;11.80;88.50;;;;;;5017427;28;19978;-79
2024/01/01 12:42:39;;;;;;;;;;;11.80;89.00;;;;;;5017330;28;20386;-80
2024/01/01 12:45:04;;;;;;;;;;;11.80;88.60;;;;;;5035400;28;19987;-79
2024/01/01 12:47:33;;;;;;;;;;;11.80;88.60;;;;;;5017214;28;20055;-78
2024/01/01 12:49:58;;;;;;;;;;;11.70;88.50;;;;;;5032318;28;19909;-78
2024/01/01 12:52:31;;;;;;;;;;;11.80;88.70;;;;;;5015910;28;20286;-79
2024/01/01 12:54:56;;;;;;;;;;;12.50;88.80;;;;;;5030922;28;19909;-78
2024/01/01 12:57:24;;;;;;;;;;;11.90;88.60;;;;;;5032242;28;19909;-79
2024/01/01 12:59:50;;;;;;;;;;;12.00;88.70;;;;;;5029846;28;19923;-78
2024/01/01 13:02:15;;;;;;;;;;;12.20;88.70;;;;;;5015211;28;19917;-78
2024/01/01 13:04:41;;;;;;;;;;;11.80;88.50;;;;;;5015465;28;19964;-78
2024/01/01 13:07:06;;;;;;;;;;;11.80;88.50;;;;;;5016208;28;19913;-78
2024/01/01 13:09:39;;;;;;;;;;;11.80;88.50;;;;;;5016254;28;19909;-79
2024/01/01 13:12:05;;;;;;;;;;;11.80;88.50;;;;;;5016524;28;20020;-79
2024/01/01 13:14:31;;;;;;;;;;;11.80;88.50;;;;;;5015704;28;20019;-79
2024/01/01 13:17:03;;;;;;;;;;;12.40;88.90;;;;;;5016002;28;19913;-78
2024/01/01 13:19:38;;;;;;;;;;;11.90;88.50;;;;;;5015501;28;19958;-78
2024/01/01 13:22:03;;;;;;;;;;;11.90;88.40;;;;;;5016264;28;19952;-79
2024/01/01 13:24:42;;;;;;;;;;;12.10;88.70;;;;;;5016297;28;19964;-78
2024/01/01 13:27:26;;;;;;;;;;;11.80;88.60;;;;;;5033086;28;19909;-78
2024/01/01 13:29:54;;;;;;;;;;;11.90;88.80;;;;;;5032525;28;19921;-78
2024/01/01 13:32:19;;;;;;;;;;;11.90;88.70;;;;;;5032282;28;19933;-78
2024/01/01 13:34:45;;;;;;;;;;;12.00;88.70;;;;;;5015742;28;19975;-78
2024/01/01 13:37:10;;;;;;;;;;;12.00;88.70;;;;;;5015997;28;20236;-78
2024/01/01 13:39:39;;;;;;;;;;;11.80;88.70;;;;;;5015978;28;19913;-79
2024/01/01 13:42:10;;;;;;;;;;;11.90;88.70;;;;;;5015670;28;19910;-78
2024/01/01 13:44:40;;;;;;;;;;;11.80;88.70;;;;;;5033111;28;19913;-79
2024/01/01 13:47:06;;;;;;;;;;;12.10;88.70;;;;;;5031978;28;19909;-78
2024/01/01 13:49:33;;;;;;;;;;;11.80;88.70;;;;;;5014780;28;20449;-78
2024/01/01 13:52:01;;;;;;;;;;;11.90;88.70;;;;;;5015424;28;19922;-79
2024/01/01 13:54:26;;;;;;;;;;;12.60;89.10;;;;;;5013422;28;19909;-78
2024/01/01 13:56:52;;;;;;;;;;;12.20;88.80;;;;;;5013379;28;19923;-78
2024/01/01 13:59:17;;;;;;;;;;;11.90;88.70;;;;;;5014744;28;20671;-78
2024/01/01 14:01:43;;;;;;;;;;;11.90;88.70;;;;;;5013681;28;19917;-79
2024/01/01 14:04:08;;;;;;;;;;;11.90;88.70;;;;;;5032789;28;19913;-79
2024/01/01 14:06:37;;;;;;;;;;;11.90;88.70;;;;;;5027831;28;19913;-80
2024/01/01 14:09:05;;;;;;;;;;;11.90;88.70;;;;;;5016438;28;20029;-79
2024/01/01 14:11:57;;;;;;;;;;;;;;;;;;;;;
2024/01/01 14:17:23;;;;;;;;;;;11.90;88.80;;;;;;5033126;28;19917;-79
2024/01/01 14:19:51;;;;;;;;;;;13.00;89.40;;;;;;5015038;28;20408;-78
2024/01/01 14:22:17;;;;;;;;;;;12.00;88.90;;;;;;5029805;28;19913;-77
2024/01/01 14:24:43;;;;;;;;;;;11.90;88.80;;;;;;5013472;28;20385;-79
2024/01/01 14:27:11;;;;;;;;;;;11.90;88.80;;;;;;5012702;28;20377;-78
2024/01/01 14:29:46;;;;;;;;;;;12.10;88.80;;;;;;5011869;28;19928;-79
2024/01/01 14:32:17;;;;;;;;;;;11.80;88.70;;;;;;5012967;28;19913;-79
2024/01/01 14:34:47;;;;;;;;;;;11.70;88.60;;;;;;5031597;28;19909;-78
2024/01/01 14:37:16;;;;;;;;;;;11.80;88.90;;;;;;5012801;28;20439;-79
2024/01/01 14:39:49;;;;;;;;;;;11.80;88.70;;;;;;5012913;28;19944;-79
2024/01/01 14:42:34;;;;;;;;;;;11.80;88.70;;;;;;5013300;28;19917;-78
2024/01/01 14:45:17;;;;;;;;;;;12.00;89.00;;;;;;5000410;28;19957;-78
2024/01/01 14:47:45;;;;;;;;;;;11.80;88.70;;;;;;4993746;28;20378;-78
2024/01/01 14:50:20;;;;;;;;;;;11.30;88.50;;;;;;5010804;28;20366;-78